Terminal Aerodrome Forecast
Issued by NWS

Current Version | Previous Version | Text Only | Print | Product List | Glossary On
Versions: 1 2 3 4 5 6 7 8 9 10 11 12 13 14 15 16 17 18 19 20 21 22 23 24 25 26 27 28 29 30 31 32 33 34 35 36 37 38 39 40 41 42 43 44 45 46 47 48 49 50
000
FTUS42 KMFL 210855 AAA
TAFMIA
TAF AMD
KMIA 210855Z 2109/2206 VRB03KT P6SM VCSH SCT050 BKN100
     FM211500 17006KT P6SM VCSH SCT025 BKN250
     FM211900 20006KT P6SM SHRA SCT025 BKN035 PROB30 2119/2124 TSRA
      BKN035CB
     FM220000 VRB03KT P6SM VCSH SCT025 BKN040=

USA.gov is the U.S. government's official web portal to all federal, state and local government web resources and services.